Time;durP1;ratioP1;P1;durP2;ratioP2;P2;SDS_P1;SDS_P2;PMS_P1;PMS_P2;Temp;Humidity;BMP_temperature;BMP_pressure;BME280_temperature;BME280_humidity;BME280_pressure;Samples;Min_cycle;Max_cycle;Signal;HPM_P1;HPM_P2
2022/04/13 00:05:32;;;;;;;1.70;1.50;;;;;;;-144.32;100.00;68061.97;10521168;27;20374;-71
2022/04/13 00:11:32;;;;;;;2.25;1.50;;;;;;;-144.32;100.00;68061.97;10482910;27;20052;-71
2022/04/13 00:17:31;;;;;;;2.65;1.95;;;;;;;-144.32;100.00;68061.97;10485291;28;20055;-71
2022/04/13 00:23:31;;;;;;;3.58;1.92;;;;;;;-144.32;100.00;68061.97;10486450;28;20044;-71
2022/04/13 00:29:30;;;;;;;2.00;1.77;;;;;;;-144.32;100.00;68061.97;10489184;28;20063;-71
2022/04/13 00:35:29;;;;;;;1.90;1.42;;;;;;;-144.32;100.00;68061.97;10490820;28;20802;-71
2022/04/13 00:41:28;;;;;;;2.10;1.45;;;;;;;-144.32;100.00;68061.97;10465532;28;20099;-71
2022/04/13 00:47:28;;;;;;;2.20;1.58;;;;;;;-144.32;100.00;68061.97;10461056;28;20049;-71
2022/04/13 00:53:29;;;;;;;2.28;1.70;;;;;;;-144.32;100.00;68061.97;10460051;28;20049;-71
2022/04/13 00:59:31;;;;;;;1.77;1.67;;;;;;;-144.32;100.00;68061.97;10465595;28;20483;-73
2022/04/13 01:05:32;;;;;;;1.73;1.58;;;;;;;-144.32;100.00;68061.97;10459798;28;20052;-72
2022/04/13 01:11:31;;;;;;;2.03;1.65;;;;;;;-144.32;100.00;68061.97;10478443;28;20090;-69
2022/04/13 01:17:30;;;;;;;3.00;1.80;;;;;;;-144.32;100.00;68061.97;10471536;28;20607;-70
2022/04/13 01:23:50;;;;;;;1.92;1.70;;;;;;;-144.32;100.00;68061.97;10462707;28;20040;-70
2022/04/13 01:29:52;;;;;;;3.17;1.42;;;;;;;-144.32;100.00;68061.97;10465782;28;21286;-70
2022/04/13 01:35:51;;;;;;;1.77;1.55;;;;;;;-144.32;100.00;68061.97;10469566;28;20085;-71
2022/04/13 01:41:50;;;;;;;2.92;1.90;;;;;;;-144.32;100.00;68061.97;10467583;28;20052;-70
2022/04/13 01:47:49;;;;;;;2.42;1.60;;;;;;;-144.32;100.00;68061.97;10460682;28;20126;-71
2022/04/13 01:53:49;;;;;;;2.28;1.65;;;;;;;-144.32;100.00;68061.97;10455089;28;20131;-70
2022/04/13 01:59:48;;;;;;;1.70;1.40;;;;;;;-144.32;100.00;68061.97;10451528;28;20045;-71
2022/04/13 02:12:47;;;;;;;2.10;1.58;;;;;;;-144.32;100.00;68061.97;10453223;28;20144;-70
2022/04/13 02:18:46;;;;;;;2.00;1.50;;;;;;;-144.32;100.00;68061.97;10452183;28;20048;-70
2022/04/13 02:24:45;;;;;;;1.88;1.50;;;;;;;-144.32;100.00;68061.97;10463737;28;20101;-71
2022/04/13 02:30:44;;;;;;;2.28;1.40;;;;;;;-144.32;100.00;68061.97;10454305;28;20567;-71
2022/04/13 02:36:43;;;;;;;1.95;1.63;;;;;;;-144.32;100.00;68061.97;10460971;28;20045;-70
2022/04/13 02:42:42;;;;;;;1.73;1.58;;;;;;;-144.32;100.00;68061.97;10453251;28;20055;-71
2022/04/13 02:48:41;;;;;;;1.42;1.10;;;;;;;-144.32;100.00;68061.97;10452358;28;20053;-70
2022/04/13 02:54:40;;;;;;;1.85;1.50;;;;;;;-144.32;100.00;68061.97;10451785;28;20563;-71
2022/04/13 03:00:39;;;;;;;2.05;1.40;;;;;;;-144.32;100.00;68061.97;10451553;28;20060;-71
2022/04/13 03:06:38;;;;;;;1.83;1.50;;;;;;;-144.32;100.00;68061.97;10460686;28;20523;-71
2022/04/13 03:12:37;;;;;;;3.00;1.55;;;;;;;-144.32;100.00;68061.97;10442386;28;20060;-70
2022/04/13 03:18:37;;;;;;;2.53;1.35;;;;;;;-144.32;100.00;68061.97;10462999;28;20044;-71
2022/04/13 03:24:36;;;;;;;1.55;1.40;;;;;;;-144.32;100.00;68061.97;10476206;28;20136;-71
2022/04/13 03:30:35;;;;;;;1.90;1.30;;;;;;;-144.32;100.00;68061.97;10461145;28;20048;-71
2022/04/13 03:36:39;;;;;;;1.55;1.30;;;;;;;-144.32;100.00;68061.97;10457299;28;20488;-71
2022/04/13 03:42:38;;;;;;;1.48;1.30;;;;;;;-144.32;100.00;68061.97;10456085;28;20644;-70
2022/04/13 03:48:38;;;;;;;1.80;1.20;;;;;;;-144.32;100.00;68061.97;10448313;28;20124;-70
2022/04/13 03:54:37;;;;;;;1.70;1.30;;;;;;;-144.32;100.00;68061.97;10459795;28;20047;-70
2022/04/13 04:00:37;;;;;;;2.42;1.40;;;;;;;-144.32;100.00;68061.97;10452866;28;20052;-70
2022/04/13 04:06:36;;;;;;;1.35;1.23;;;;;;;-144.32;100.00;68061.97;10465221;28;20186;-70
2022/04/13 04:12:35;;;;;;;1.42;1.30;;;;;;;-144.32;100.00;68061.97;10459959;28;20148;-70
2022/04/13 04:18:35;;;;;;;1.40;1.30;;;;;;;-144.32;100.00;68061.97;10480801;28;20060;-70
2022/04/13 04:24:34;;;;;;;2.55;1.20;;;;;;;-144.32;100.00;68061.97;10464368;28;20503;-70
2022/04/13 04:30:33;;;;;;;1.73;1.40;;;;;;;-144.32;100.00;68061.97;10467389;28;20041;-70
2022/04/13 04:36:32;;;;;;;1.40;1.15;;;;;;;-144.32;100.00;68061.97;10466720;28;20573;-70
2022/04/13 04:42:32;;;;;;;1.20;1.10;;;;;;;-144.32;100.00;68061.97;10461727;28;20099;-70
2022/04/13 04:48:31;;;;;;;2.03;1.10;;;;;;;-144.32;100.00;68061.97;10466939;28;20300;-70
2022/04/13 04:54:29;;;;;;;1.70;1.30;;;;;;;-144.32;100.00;68061.97;10473593;28;20123;-70
2022/04/13 05:00:29;;;;;;;1.95;1.33;;;;;;;-144.32;100.00;68061.97;10461077;28;20382;-70
2022/04/13 05:06:29;;;;;;;1.50;1.25;;;;;;;-144.32;100.00;68061.97;10457438;28;20083;-70
2022/04/13 05:12:28;;;;;;;1.92;1.30;;;;;;;-144.32;100.00;68061.97;10487768;28;20049;-70
2022/04/13 05:18:27;;;;;;;1.60;1.25;;;;;;;-144.32;100.00;68061.97;10456921;28;20453;-70
2022/04/13 05:24:26;;;;;;;2.00;1.10;;;;;;;-144.32;100.00;68061.97;10469870;28;20045;-70
2022/04/13 05:30:25;;;;;;;1.30;1.20;;;;;;;-144.32;100.00;68061.97;10454738;28;20655;-70
2022/04/13 05:36:24;;;;;;;1.40;1.30;;;;;;;-144.32;100.00;68061.97;10464557;28;20045;-69
2022/04/13 05:42:24;;;;;;;1.60;1.40;;;;;;;-144.32;100.00;68061.97;10462837;28;20061;-71
2022/04/13 05:48:23;;;;;;;1.45;1.20;;;;;;;-144.32;100.00;68061.97;10460570;28;20131;-69
2022/04/13 05:54:22;;;;;;;1.65;1.20;;;;;;;-144.32;100.00;68061.97;10472347;28;20050;-71
2022/04/13 06:00:21;;;;;;;1.92;1.65;;;;;;;-144.32;100.00;68061.97;10437142;28;20136;-68
2022/04/13 06:06:21;;;;;;;2.63;1.50;;;;;;;-144.32;100.00;68061.97;10463734;28;20166;-67
2022/04/13 06:12:21;;;;;;;1.10;0.98;;;;;;;-144.32;100.00;68061.97;10457013;28;20057;-68
2022/04/13 06:18:20;;;;;;;3.15;1.25;;;;;;;-144.32;100.00;68061.97;10460998;28;20053;-70
2022/04/13 06:24:19;;;;;;;1.33;1.08;;;;;;;-144.32;100.00;68061.97;10460182;28;20553;-69
2022/04/13 06:30:17;;;;;;;1.27;1.10;;;;;;;-144.32;100.00;68061.97;10464737;28;20045;-70
2022/04/13 06:36:16;;;;;;;2.55;1.42;;;;;;;-144.32;100.00;68061.97;10450668;28;20052;-68
2022/04/13 06:42:15;;;;;;;2.65;1.40;;;;;;;-144.32;100.00;68061.97;10453787;28;20057;-71
2022/04/13 06:48:14;;;;;;;3.65;1.50;;;;;;;-144.32;100.00;68061.97;10446251;28;20053;-68
2022/04/13 06:54:14;;;;;;;3.13;1.40;;;;;;;-144.32;100.00;68061.97;10479095;28;20096;-68
2022/04/13 07:00:13;;;;;;;4.10;1.75;;;;;;;-144.32;100.00;68061.97;10465549;28;20078;-69
2022/04/13 07:06:12;;;;;;;3.40;1.60;;;;;;;-144.32;100.00;68061.97;10465379;28;20586;-70
2022/04/13 07:12:11;;;;;;;4.22;2.10;;;;;;;-144.32;100.00;68061.97;10453983;28;20611;-70
2022/04/13 07:18:10;;;;;;;4.75;1.95;;;;;;;-144.32;100.00;68061.97;10458716;28;20076;-65
2022/04/13 07:24:13;;;;;;;7.15;1.73;;;;;;;-144.32;100.00;68061.97;10456004;28;20056;-70
2022/04/13 07:30:13;;;;;;;2.88;2.13;;;;;;;-144.32;100.00;68061.97;10454452;28;20420;-68
2022/04/13 07:36:12;;;;;;;5.00;2.15;;;;;;;-144.32;100.00;68061.97;10457650;28;20049;-67
2022/04/13 07:42:11;;;;;;;3.03;1.77;;;;;;;-144.32;100.00;68061.97;10450664;28;20130;-69
2022/04/13 07:48:10;;;;;;;4.57;1.90;;;;;;;-144.32;100.00;68061.97;10461725;28;20056;-73
2022/04/13 07:54:09;;;;;;;4.05;1.98;;;;;;;-144.32;100.00;68061.97;10463154;28;20044;-72
2022/04/13 08:00:12;;;;;;;3.88;1.80;;;;;;;-144.32;100.00;68061.97;10462867;28;20543;-72
2022/04/13 08:06:12;;;;;;;2.15;1.60;;;;;;;-144.32;100.00;68061.97;10468488;28;20048;-70
2022/04/13 08:12:11;;;;;;;3.90;2.40;;;;;;;-144.32;100.00;68061.97;10454326;28;20138;-68
2022/04/13 08:18:11;;;;;;;3.17;1.75;;;;;;;-144.32;100.00;68061.97;10469714;28;20052;-78
2022/04/13 08:24:10;;;;;;;4.07;2.20;;;;;;;-144.32;100.00;68061.97;10457232;28;20052;-77
2022/04/13 08:30:09;;;;;;;3.88;2.60;;;;;;;-144.32;100.00;68061.97;10463653;28;20056;-74
2022/04/13 08:36:08;;;;;;;4.78;2.30;;;;;;;-144.32;100.00;68061.97;10468321;28;20053;-78
2022/04/13 08:42:26;;;;;;;3.72;2.15;;;;;;;-144.32;100.00;68061.97;10465368;28;20087;-78
2022/04/13 08:48:25;;;;;;;4.47;2.65;;;;;;;-144.32;100.00;68061.97;10466356;28;20049;-77
2022/04/13 08:54:29;;;;;;;5.70;2.80;;;;;;;-144.32;100.00;68061.97;10460716;28;20048;-74
2022/04/13 09:00:48;;;;;;;5.88;2.97;;;;;;;-144.32;100.00;68061.97;10481350;28;20045;-75
2022/04/13 09:06:49;;;;;;;4.40;2.45;;;;;;;-144.32;100.00;68061.97;10468052;28;20095;-76
2022/04/13 09:12:49;;;;;;;4.72;2.70;;;;;;;-144.32;100.00;68061.97;10480827;28;20098;-75
2022/04/13 09:18:49;;;;;;;3.90;2.30;;;;;;;-144.32;100.00;68061.97;10461634;28;20045;-75
2022/04/13 09:24:48;;;;;;;4.20;2.53;;;;;;;-144.32;100.00;68061.97;10480203;28;20048;-75
2022/04/13 09:30:47;;;;;;;2.72;2.22;;;;;;;-144.32;100.00;68061.97;10477503;28;20049;-76
2022/04/13 09:36:46;;;;;;;4.25;2.58;;;;;;;-144.32;100.00;68061.97;10455668;28;20091;-77
2022/04/13 09:42:45;;;;;;;3.67;2.50;;;;;;;-144.32;100.00;68061.97;10487210;28;20469;-73
2022/04/13 09:48:44;;;;;;;3.63;2.65;;;;;;;-144.32;100.00;68061.97;10462971;28;20045;-76
2022/04/13 09:54:48;;;;;;;3.40;2.53;;;;;;;-144.32;100.00;68061.97;10462053;28;20057;-78
2022/04/13 10:00:55;;;;;;;3.60;2.60;;;;;;;-144.32;100.00;68061.97;10476581;28;20044;-77
2022/04/13 10:07:13;;;;;;;4.30;2.60;;;;;;;-144.32;100.00;68061.97;10467306;28;20076;-77
2022/04/13 10:13:12;;;;;;;3.65;2.35;;;;;;;-144.32;100.00;68061.97;10461707;28;20052;-76
2022/04/13 10:19:18;;;;;;;3.38;2.45;;;;;;;-144.32;100.00;68061.97;10464584;28;20057;-74
2022/04/13 10:25:18;;;;;;;4.40;2.60;;;;;;;-144.32;100.00;68061.97;10459535;28;20045;-78
2022/04/13 10:31:24;;;;;;;3.03;2.22;;;;;;;-144.32;100.00;68061.97;10463520;28;20498;-74
2022/04/13 10:37:24;;;;;;;4.70;2.50;;;;;;;-144.32;100.00;68061.97;10474489;28;20053;-75
2022/04/13 10:43:26;;;;;;;3.28;2.40;;;;;;;-144.32;100.00;68061.97;10482520;28;20068;-70
2022/04/13 10:49:30;;;;;;;3.50;2.55;;;;;;;-144.32;100.00;68061.97;10455346;28;20049;-77
2022/04/13 10:55:33;;;;;;;2.40;2.08;;;;;;;-144.32;100.00;68061.97;10450434;28;20053;-79
2022/04/13 11:01:42;;;;;;;2.90;2.30;;;;;;;-144.32;100.00;68061.97;10453602;28;20045;-74
2022/04/13 11:07:41;;;;;;;3.97;2.72;;;;;;;-144.32;100.00;68061.97;10465382;28;20049;-70
2022/04/13 11:13:40;;;;;;;4.40;2.40;;;;;;;-144.32;100.00;68061.97;10459757;28;20052;-72
2022/04/13 11:19:40;;;;;;;4.78;2.42;;;;;;;-144.32;100.00;68061.97;10437298;28;20050;-72
2022/04/13 11:25:42;;;;;;;3.65;2.30;;;;;;;-144.32;100.00;68061.97;10459651;28;20051;-71
2022/04/13 11:32:00;;;;;;;3.28;2.30;;;;;;;-144.32;100.00;68061.97;10457169;28;20077;-72
2022/04/13 11:38:04;;;;;;;3.28;2.35;;;;;;;-144.32;100.00;68061.97;10467394;28;20071;-77
2022/04/13 11:44:15;;;;;;;3.65;2.33;;;;;;;-144.32;100.00;68061.97;10460967;28;20064;-79
2022/04/13 11:50:14;;;;;;;2.50;2.22;;;;;;;-144.32;100.00;68061.97;10454220;28;20051;-73
2022/04/13 11:56:29;;;;;;;2.85;2.30;;;;;;;-144.32;100.00;68061.97;10457825;28;20061;-76
2022/04/13 12:02:30;;;;;;;3.37;2.20;;;;;;;-144.32;100.00;68061.97;10466838;28;20041;-75
2022/04/13 12:08:35;;;;;;;2.30;2.05;;;;;;;-144.32;100.00;68061.97;10473797;28;20400;-75
2022/04/13 12:14:45;;;;;;;3.05;2.58;;;;;;;-144.32;100.00;68061.97;10455652;28;20057;-76
2022/04/13 12:20:44;;;;;;;2.60;2.40;;;;;;;-144.32;100.00;68061.97;10451002;28;20126;-76
2022/04/13 12:26:46;;;;;;;4.13;2.63;;;;;;;-144.32;100.00;68061.97;10457069;28;20053;-75
2022/04/13 12:32:52;;;;;;;2.95;2.25;;;;;;;-144.32;100.00;68061.97;10464081;28;20057;-78
2022/04/13 12:38:55;;;;;;;2.67;2.20;;;;;;;-144.32;100.00;68061.97;10467580;28;20057;-74
2022/04/13 12:44:54;;;;;;;3.58;2.30;;;;;;;-144.32;100.00;68061.97;10463604;28;20044;-75
2022/04/13 12:51:00;;;;;;;3.20;2.13;;;;;;;-144.32;100.00;68061.97;10472515;28;20067;-74
2022/04/13 12:57:01;;;;;;;2.97;2.25;;;;;;;-144.32;100.00;68061.97;10460873;28;20106;-75
2022/04/13 13:03:00;;;;;;;3.58;2.50;;;;;;;-144.32;100.00;68061.97;10457589;28;20412;-76
2022/04/13 13:09:03;;;;;;;3.47;2.35;;;;;;;-144.32;100.00;68061.97;10455991;28;20048;-75
2022/04/13 13:15:07;;;;;;;2.55;2.35;;;;;;;-144.32;100.00;68061.97;10476884;28;20459;-76
2022/04/13 13:21:10;;;;;;;2.53;2.10;;;;;;;-144.32;100.00;68061.97;10470864;28;20045;-76
2022/04/13 13:27:25;;;;;;;2.40;2.20;;;;;;;-144.32;100.00;68061.97;10450803;28;20492;-75
2022/04/13 13:33:26;;;;;;;2.97;2.13;;;;;;;-144.32;100.00;68061.97;10460402;28;20055;-75
2022/04/13 13:39:28;;;;;;;3.15;2.30;;;;;;;-144.32;100.00;68061.97;10458026;28;20052;-75
2022/04/13 13:45:31;;;;;;;2.63;1.90;;;;;;;-144.32;100.00;68061.97;10468237;28;20049;-75
2022/04/13 13:51:33;;;;;;;2.85;2.40;;;;;;;-144.32;100.00;68061.97;10455954;28;20057;-76
2022/04/13 13:57:33;;;;;;;2.08;1.88;;;;;;;-144.32;100.00;68061.97;10467267;28;20041;-75
2022/04/13 14:03:31;;;;;;;2.78;2.33;;;;;;;-144.32;100.00;68061.97;10465156;28;20380;-73
2022/04/13 14:09:30;;;;;;;3.45;2.20;;;;;;;-144.32;100.00;68061.97;10453753;28;20048;-69
2022/04/13 14:15:30;;;;;;;2.30;2.10;;;;;;;-144.32;100.00;68061.97;10462606;28;20056;-70
2022/04/13 14:21:29;;;;;;;2.75;2.00;;;;;;;-144.32;100.00;68061.97;10466139;28;20053;-70
2022/04/13 14:27:31;;;;;;;2.33;1.98;;;;;;;-144.32;100.00;68061.97;10454806;28;20064;-74
2022/04/13 14:33:35;;;;;;;2.70;1.90;;;;;;;-144.32;100.00;68061.97;10455603;28;20056;-78
2022/04/13 14:39:37;;;;;;;2.77;2.10;;;;;;;-144.32;100.00;68061.97;10450508;28;20041;-72
2022/04/13 14:45:36;;;;;;;2.10;1.90;;;;;;;-144.32;100.00;68061.97;10469003;28;20060;-72
2022/04/13 14:51:35;;;;;;;2.53;2.20;;;;;;;-144.32;100.00;68061.97;10458296;28;20052;-74
2022/04/13 14:57:38;;;;;;;3.22;2.30;;;;;;;-144.32;100.00;68061.97;10474524;28;20044;-74
2022/04/13 15:03:37;;;;;;;3.00;2.55;;;;;;;-144.32;100.00;68061.97;10458346;28;20106;-74
2022/04/13 15:09:36;;;;;;;3.20;2.90;;;;;;;-144.32;100.00;68061.97;10454736;28;20048;-73
2022/04/13 15:15:35;;;;;;;3.05;2.75;;;;;;;-144.32;100.00;68061.97;10461718;28;20049;-74
2022/04/13 15:21:34;;;;;;;3.10;2.50;;;;;;;-144.32;100.00;68061.97;10476610;28;20056;-72
2022/04/13 15:27:35;;;;;;;3.78;2.88;;;;;;;-144.32;100.00;68061.97;10463195;28;20045;-73
2022/04/13 15:33:34;;;;;;;3.58;2.60;;;;;;;-144.32;100.00;68061.97;10452818;28;20077;-75
2022/04/13 15:39:33;;;;;;;3.97;2.90;;;;;;;-144.32;100.00;68061.97;10452171;28;20077;-75
2022/04/13 15:45:32;;;;;;;3.50;2.92;;;;;;;-144.32;100.00;68061.97;10451365;28;20055;-74
2022/04/13 15:51:32;;;;;;;2.95;2.70;;;;;;;-144.32;100.00;68061.97;10444565;28;20056;-73
2022/04/13 15:57:31;;;;;;;2.67;2.47;;;;;;;-144.32;100.00;68061.97;10451673;28;20049;-72
2022/04/13 16:03:30;;;;;;;3.17;2.85;;;;;;;-144.32;100.00;68061.97;10449591;28;20056;-74
2022/04/13 16:09:29;;;;;;;3.38;2.67;;;;;;;-144.32;100.00;68061.97;10453093;28;20049;-76
2022/04/13 16:15:28;;;;;;;2.85;2.65;;;;;;;-144.32;100.00;68061.97;10478799;28;20083;-71
2022/04/13 16:21:27;;;;;;;3.33;2.80;;;;;;;-144.32;100.00;68061.97;10475048;28;20052;-73
2022/04/13 16:27:26;;;;;;;2.88;2.53;;;;;;;-144.32;100.00;68061.97;10460242;28;20076;-72
2022/04/13 16:33:25;;;;;;;2.45;2.25;;;;;;;-144.32;100.00;68061.97;10445447;28;20049;-73
2022/04/13 16:39:24;;;;;;;3.83;2.80;;;;;;;-144.32;100.00;68061.97;10469262;28;20049;-78
2022/04/13 16:45:31;;;;;;;3.33;2.40;;;;;;;-144.32;100.00;68061.97;10469757;28;20064;-73
2022/04/13 16:51:30;;;;;;;3.08;2.50;;;;;;;-144.32;100.00;68061.97;10448210;28;20064;-79
2022/04/13 16:57:29;;;;;;;2.95;2.35;;;;;;;-144.32;100.00;68061.97;10456598;28;20045;-76
2022/04/13 17:03:28;;;;;;;2.80;2.40;;;;;;;-144.32;100.00;68061.97;10461300;28;20111;-74
2022/04/13 17:09:27;;;;;;;2.65;2.45;;;;;;;-144.32;100.00;68061.97;10468237;28;20091;-73
2022/04/13 17:15:27;;;;;;;3.42;2.63;;;;;;;-144.32;100.00;68061.97;10458780;28;20057;-76
2022/04/13 17:21:26;;;;;;;4.43;2.85;;;;;;;-144.32;100.00;68061.97;10462616;28;20037;-77
2022/04/13 17:27:25;;;;;;;3.53;3.22;;;;;;;-144.32;100.00;68061.97;10461691;28;20097;-75
2022/04/13 17:33:24;;;;;;;3.38;3.08;;;;;;;-144.32;100.00;68061.97;10457414;28;20036;-75
2022/04/13 17:38:27;;;;;;;3.85;3.38;;;;;;;-144.32;100.00;68061.97;10453329;28;20484;-79
2022/04/13 17:44:26;;;;;;;3.55;2.92;;;;;;;-144.32;100.00;68061.97;10460582;28;20041;-76
2022/04/13 17:50:25;;;;;;;4.47;3.10;;;;;;;-144.32;100.00;68061.97;10457932;28;20052;-75
2022/04/13 17:56:24;;;;;;;4.50;3.47;;;;;;;-144.32;100.00;68061.97;10462902;28;20645;-79
2022/04/13 18:02:23;;;;;;;3.78;3.17;;;;;;;-144.32;100.00;68061.97;10457378;28;20517;-75
2022/04/13 18:08:23;;;;;;;4.07;3.08;;;;;;;-144.32;100.00;68061.97;10453958;28;20061;-75
2022/04/13 18:14:22;;;;;;;4.63;3.15;;;;;;;-144.32;100.00;68061.97;10466194;28;20053;-77
2022/04/13 18:20:21;;;;;;;4.78;3.50;;;;;;;-144.32;100.00;68061.97;10466810;28;20056;-73
2022/04/13 18:26:20;;;;;;;5.20;3.70;;;;;;;-144.32;100.00;68061.97;10460218;28;20048;-73
2022/04/13 18:32:20;;;;;;;5.03;4.35;;;;;;;-144.32;100.00;68061.97;10455603;28;20053;-73
2022/04/13 18:38:19;;;;;;;5.82;5.22;;;;;;;-144.32;100.00;68061.97;10460006;28;20064;-72
2022/04/13 18:44:20;;;;;;;6.10;5.20;;;;;;;-144.32;100.00;68061.97;10451398;28;20037;-71
2022/04/13 18:50:19;;;;;;;6.35;5.75;;;;;;;-144.32;100.00;68061.97;10452040;28;20056;-73
2022/04/13 18:56:20;;;;;;;7.00;5.95;;;;;;;-144.32;100.00;68061.97;10463369;28;20911;-69
2022/04/13 19:02:19;;;;;;;7.20;6.50;;;;;;;-144.32;100.00;68061.97;10467947;28;20055;-70
2022/04/13 19:08:18;;;;;;;7.57;6.70;;;;;;;-144.32;100.00;68061.97;10475303;28;20056;-73
2022/04/13 19:14:17;;;;;;;9.07;6.90;;;;;;;-144.32;100.00;68061.97;10453147;28;20451;-73
2022/04/13 19:20:16;;;;;;;7.25;6.55;;;;;;;-144.32;100.00;68061.97;10471286;28;20049;-73
2022/04/13 19:26:15;;;;;;;7.50;6.80;;;;;;;-144.32;100.00;68061.97;10460353;28;20073;-76
2022/04/13 19:32:14;;;;;;;8.38;6.95;;;;;;;-144.32;100.00;68061.97;10475061;28;20091;-73
2022/04/13 19:38:15;;;;;;;7.60;6.90;;;;;;;-144.32;100.00;68061.97;10449860;28;20049;-74
2022/04/13 19:44:13;;;;;;;7.70;6.88;;;;;;;-144.32;100.00;68061.97;10433880;28;20477;-68
2022/04/13 19:50:14;;;;;;;7.68;6.93;;;;;;;-144.32;100.00;68061.97;10433507;28;20067;-70
2022/04/13 19:56:13;;;;;;;7.55;6.85;;;;;;;-144.32;100.00;68061.97;10435333;28;20128;-70
2022/04/13 20:02:12;;;;;;;10.70;6.97;;;;;;;-144.32;100.00;68061.97;10436133;28;20049;-69
2022/04/13 20:08:11;;;;;;;7.10;6.30;;;;;;;-144.32;100.00;68061.97;10439794;28;20099;-77
2022/04/13 20:14:10;;;;;;;6.80;6.20;;;;;;;-144.32;100.00;68061.97;10436735;28;20072;-76
2022/04/13 20:20:13;;;;;;;6.30;5.70;;;;;;;-144.32;100.00;68061.97;10434387;28;20840;-75
2022/04/13 20:26:15;;;;;;;6.32;5.70;;;;;;;-144.32;100.00;68061.97;10440291;28;20064;-77
2022/04/13 20:32:14;;;;;;;6.10;5.50;;;;;;;-144.32;100.00;68061.97;10435665;28;20053;-78
2022/04/13 20:38:13;;;;;;;6.85;5.20;;;;;;;-144.32;100.00;68061.97;10438927;28;20562;-77
2022/04/13 20:44:12;;;;;;;5.32;4.82;;;;;;;-144.32;100.00;68061.97;10443109;28;20054;-80
2022/04/13 20:50:11;;;;;;;5.57;5.07;;;;;;;-144.32;100.00;68061.97;10438872;28;20056;-76
2022/04/13 20:56:10;;;;;;;6.05;4.78;;;;;;;-144.32;100.00;68061.97;10433769;28;20087;-73
2022/04/13 21:02:08;;;;;;;5.47;4.97;;;;;;;-144.32;100.00;68061.97;10426489;28;20045;-74
2022/04/13 21:08:07;;;;;;;4.82;4.43;;;;;;;-144.32;100.00;68061.97;10431461;28;20053;-74
2022/04/13 21:14:06;;;;;;;4.68;4.32;;;;;;;-144.32;100.00;68061.97;10434710;28;20065;-74
2022/04/13 21:20:06;;;;;;;4.43;4.03;;;;;;;-144.32;100.00;68061.97;10452234;28;20064;-82
2022/04/13 21:26:05;;;;;;;4.68;4.25;;;;;;;-144.32;100.00;68061.97;10430753;28;20124;-84
2022/04/13 21:32:04;;;;;;;5.80;4.47;;;;;;;-144.32;100.00;68061.97;10442440;28;20466;-79
2022/04/13 21:38:03;;;;;;;5.63;5.13;;;;;;;-144.32;100.00;68061.97;10436565;28;20045;-75
2022/04/13 21:44:02;;;;;;;5.38;4.78;;;;;;;-144.32;100.00;68061.97;10430082;28;20057;-75
2022/04/13 21:50:01;;;;;;;5.22;4.40;;;;;;;-144.32;100.00;68061.97;10443288;28;20079;-76
2022/04/13 21:56:02;;;;;;;4.97;4.45;;;;;;;-144.32;100.00;68061.97;10448864;28;20056;-72
2022/04/13 22:02:01;;;;;;;5.10;4.50;;;;;;;-144.32;100.00;68061.97;10436672;28;20045;-75
2022/04/13 22:08:00;;;;;;;6.35;5.03;;;;;;;-144.32;100.00;68061.97;10441132;28;20064;-77
2022/04/13 22:13:59;;;;;;;8.45;5.03;;;;;;;-144.32;100.00;68061.97;10470847;28;20057;-79
2022/04/13 22:19:58;;;;;;;5.00;4.50;;;;;;;-144.32;100.00;68061.97;10442797;28;20067;-73
2022/04/13 22:25:57;;;;;;;6.25;4.93;;;;;;;-144.32;100.00;68061.97;10441614;28;20512;-76
2022/04/13 22:31:56;;;;;;;6.82;4.95;;;;;;;-144.32;100.00;68061.97;10457463;28;20476;-76
2022/04/13 22:37:55;;;;;;;6.30;4.45;;;;;;;-144.32;100.00;68061.97;10445610;28;20060;-73
2022/04/13 22:43:54;;;;;;;5.53;5.03;;;;;;;-144.32;100.00;68061.97;10446458;28;20102;-73
2022/04/13 22:49:53;;;;;;;5.30;4.80;;;;;;;-144.32;100.00;68061.97;10435616;28;20492;-74
2022/04/13 22:55:52;;;;;;;5.68;4.90;;;;;;;-144.32;100.00;68061.97;10437537;28;20048;-74
2022/04/13 23:01:51;;;;;;;5.95;5.38;;;;;;;-144.32;100.00;68061.97;10447951;28;20135;-72
2022/04/13 23:07:50;;;;;;;10.77;6.10;;;;;;;-144.32;100.00;68061.97;10433766;28;20136;-76
2022/04/13 23:13:49;;;;;;;6.40;5.65;;;;;;;-144.32;100.00;68061.97;10439174;28;20057;-72
2022/04/13 23:19:48;;;;;;;7.97;6.05;;;;;;;-144.32;100.00;68061.97;10425804;28;20052;-72
2022/04/13 23:25:47;;;;;;;6.70;5.93;;;;;;;-144.32;100.00;68061.97;10433457;28;20065;-72
2022/04/13 23:31:48;;;;;;;6.20;5.60;;;;;;;-144.32;100.00;68061.97;10426186;28;20057;-74
2022/04/13 23:37:47;;;;;;;6.18;5.30;;;;;;;-144.32;100.00;68061.97;10441203;28;20052;-67
2022/04/13 23:43:47;;;;;;;8.27;5.07;;;;;;;-144.32;100.00;68061.97;10452289;28;20048;-68
2022/04/13 23:49:46;;;;;;;5.95;4.93;;;;;;;-144.32;100.00;68061.97;10452599;28;20122;-68
2022/04/13 23:55:45;;;;;;;4.82;4.43;;;;;;;-144.32;100.00;68061.97;10457447;28;20061;-67
